Ana Sayfa
Uydu Görüntüleri 15 günlük hava durumuİklimDenizcilik Siklon Yıldırım Hava limanıSSS Newsletter Hakkında
Hava : Avrupa Afrika Kuzey Amerika Güney Amerika Asya Avustralya-Okyanusya Diğer
Diller Erişim

Istanbul Sabiha Gökçen, Türkiye

Enlem: 40-53-55N, Boylam: 029-18-33E, yükseklik: 95 m


METAR: LTFJ 292150Z 03012KT 9999 SCT035 20/13 Q1018 NOSIG RMK RWY24 02010KT
short-TAF: out of date (34382 saat)
long-TAF: LTFJ 291640Z 2918/3018 04014KT 9999 SCT035

Saat: 01:08 (22:08 UTC)

Current weather observation

Rapor 18 dakika önce saat 21:50 UTC de hazýrlanmýþ.
Rüzgâr 12 kt yönü kuzey/kuzeydoğu
Sıcaklık 20°C
Humidity 64%
Basınç 1018 hPa
Görüş 10 km veya daha fazla
scattered at a height of 3500 ft

Birim sistemleri

Forecast

Rapor 5 saat ve 5 dakika önce saat 17:03 UTC de hazýrlanmýþ.
Forecast valid from 29 at 18 UTC to 30 at 18 UTC
Rüzgâr 14 kt yönü kuzeydoğu
Görüş 10 km veya daha fazla
scattered at a height of 3500 ft
Allmetsat bilgi geçerliliğini garanti etmez sorumluluk reddi
Hava : Avrupa Afrika Kuzey Amerika Güney Amerika Asya Avustralya-Okyanusya Diğer
Uydu Görüntüleri 15 günlük hava durumuİklimDenizcilik Siklon Yıldırım Hava limanıSSS Diller Erişim Newsletter Hakkında